Latest Weather Observations for Tamworth Airport

IDN60801

Issued at 12:42 pm EDT Thursday 24 October 2019 (issued every 10 minutes, with the page automatically refreshed every 10 minutes)

About weather observations | Map of weather stations | Latest weather observations for NSW | Other Formats
Station Details ID: 055325 Name: TAMWORTH AIRPORT AWS Lat: -31.07 Lon: 150.84 Height: 394.9 m
Data from the previous 72 hours. | See also: Recent months at Tamworth Airport
Date/Time
EDT
Temp
°C
App
Temp
°C
Dew
Point
°C
Rel
Hum
%
Delta-T
°C
Wind Press
QNH
hPa
Press
MSL
hPa
Rain since
9am
mm
Dir  Spd
km/h
Gust
km/h
Spd
kts
Gust
kts
24/12:30pm 28.9 25.3 5.1 22 12.5 W 13 24 7 13 1020.6 1019.6 0.0
24/12:00pm 28.0 25.2 5.0 23 12.0 NW 9 20 5 11 1021.2 1020.1 0.0
24/11:30am 27.7 24.8 4.7 23 12.0 NW 9 17 5 9 1021.7 1020.7 0.0
24/11:00am 27.1 24.2 4.8 24 11.5 N 9 19 5 10 1022.0 1021.0 0.0
24/10:30am 25.8 22.1 4.3 25 11.0 WNW 13 19 7 10 1022.3 1021.3 0.0
24/10:00am 25.2 21.6 4.9 27 10.4 NNW 13 20 7 11 1022.5 1021.5 0.0
24/09:30am 24.6 20.2 4.9 28 10.1 NNW 17 28 9 15 1022.5 1021.5 0.0
24/09:00am 22.8 19.5 4.8 31 9.1 N 11 20 6 11 1022.4 1021.4 0.0
24/08:30am 21.5 19.9 4.6 33 8.4 NNE 2 6 1 3 1022.6 1021.6 0.0
24/08:00am 19.8 16.8 6.2 41 6.9 SE 11 13 6 7 1022.3 1021.3 0.0
24/07:30am 18.0 16.1 6.5 47 5.8 SE 6 9 3 5 1021.9 1020.9 0.0
24/07:00am 13.8 12.7 6.7 62 3.5 SSW 2 13 1 7 1021.6 1020.6 0.0
24/06:30am 13.1 10.2 6.5 64 3.2 SSE 11 11 6 6 1021.0 1019.9 0.0
24/06:00am 12.1 9.9 5.5 64 3.1 S 6 9 3 5 1020.8 1019.7 0.0
24/05:30am 12.0 9.8 5.4 64 3.1 SSW 6 7 3 4 1020.3 1019.3 0.0
24/05:00am 12.3 9.9 5.2 62 3.3 S 7 9 4 5 1020.1 1019.1 0.0
24/04:30am 12.8 11.3 5.2 60 3.6 SSE 2 9 1 5 1020.0 1019.0 0.0
24/04:00am 12.5 11.2 4.2 57 3.8 CALM 0 0 0 0 1019.9 1018.9 0.0
24/03:30am 13.3 11.0 4.7 56 4.1 SSE 6 11 3 6 1020.0 1019.0 0.0
24/03:00am 15.1 12.8 5.0 51 4.8 SSE 6 9 3 5 1020.1 1019.1 0.0
24/02:30am 13.5 11.9 4.6 55 4.2 WNW 2 6 1 3 1020.2 1019.2 0.0
24/02:00am 14.9 12.3 4.3 49 5.0 S 7 9 4 5 1020.1 1019.1 0.0
24/01:30am 17.9 14.3 4.8 42 6.4 S 13 15 7 8 1020.3 1019.3 0.0
24/01:00am 16.9 12.8 4.6 44 5.9 SW 15 17 8 9 1020.9 1019.8 0.0
24/12:30am 17.6 13.9 4.6 42 6.3 SSW 13 15 7 8 1021.0 1019.9 0.0
24/12:00am 18.7 15.6 3.7 37 7.2 W 9 13 5 7 1021.1 1020.0 0.0
 
Date/Time
EDT
Temp
°C
App
Temp
°C
Dew
Point
°C
Rel
Hum
%
Delta-T
°C
Wind Press
QNH
hPa
Press
MSL
hPa
Rain since
9am
mm
Dir  Spd
km/h
Gust
km/h
Spd
kts
Gust
kts
23/11:30pm 21.5 17.7 4.1 32 8.6 ENE 13 17 7 9 1021.2 1020.1 0.0
23/11:00pm 21.2 18.1 3.4 31 8.6 ESE 9 11 5 6 1021.3 1020.2 0.0
23/10:30pm 20.2 16.2 3.0 32 8.2 ESE 13 17 7 9 1021.1 1020.0 0.0
23/10:00pm 19.7 17.5 3.4 34 7.8 ESE 4 13 2 7 1021.1 1020.0 0.0
23/09:30pm 19.1 16.7 4.5 38 7.2 SW 6 7 3 4 1020.9 1019.8 0.0
23/09:00pm 20.6 17.7 2.4 30 8.6 SW 7 9 4 5 1020.5 1019.5 0.0
23/08:30pm 22.5 19.6 2.6 27 9.6 WSW 7 9 4 5 1020.2 1019.2 0.0
23/08:00pm 24.5 21.7 2.0 23 10.9 WSW 6 7 3 4 1020.0 1019.0 0.0
23/07:30pm 25.3 23.5 1.4 21 11.5 CALM 0 0 0 0 1019.8 1018.8 0.0
23/07:00pm 27.0 25.3 2.1 20 12.3 CALM 0 0 0 0 1019.7 1018.7 0.0
23/06:30pm 28.3 26.2 1.7 18 13.2 WNW 2 11 1 6 1019.4 1018.4 0.0
23/06:00pm 29.0 25.4 0.7 16 13.8 SW 9 17 5 9 1019.4 1018.4 0.0
23/05:30pm 28.9 25.3 0.6 16 13.8 W 9 11 5 6 1019.3 1018.3 0.0
23/05:00pm 29.1 25.5 0.7 16 13.9 NW 9 17 5 9 1019.3 1018.3 0.0
23/04:30pm 29.2 25.8 1.7 17 13.7 S 9 15 5 8 1019.4 1018.4 0.0
23/04:00pm 29.0 25.5 1.5 17 13.6 SSW 9 15 5 8 1019.8 1018.8 0.0
23/03:30pm 29.0 25.0 3.1 19 13.2 W 13 20 7 11 1020.2 1019.2 0.0
23/03:00pm 29.1 26.4 3.9 20 13.0 W 7 13 4 7 1020.4 1019.4 0.0
23/02:30pm 29.0 25.8 0.7 16 13.8 W 7 15 4 8 1020.8 1019.7 0.0
23/02:00pm 28.8 25.7 1.3 17 13.5 NW 7 19 4 10 1021.4 1020.3 0.0
23/01:30pm 27.8 24.4 2.1 19 12.8 NNW 9 17 5 9 1022.0 1021.0 0.0
23/01:00pm 27.8 24.3 3.5 21 12.3 W 11 19 6 10 1022.4 1021.4 0.0
23/12:30pm 28.0 23.7 3.0 20 12.6 NNW 15 22 8 12 1022.8 1021.8 0.0
23/12:00pm 27.1 24.9 5.4 25 11.3 S 6 13 3 7 1023.5 1022.4 0.0
23/11:30am 25.4 22.7 5.6 28 10.3 N 9 15 5 8 1024.0 1023.0 0.0
23/11:00am 25.5 21.8 6.2 29 10.1 NW 15 26 8 14 1024.6 1023.6 0.0
23/10:30am 24.4 21.0 5.7 30 9.7 NNW 13 22 7 12 1024.9 1023.9 0.0
23/10:00am 23.6 20.2 6.0 32 9.1 NNW 13 20 7 11 1025.1 1024.1 0.0
23/09:30am 22.4 20.3 5.8 34 8.5 NNE 6 13 3 7 1025.1 1024.1 0.0
23/09:00am 21.2 18.9 5.6 36 7.9 ESE 7 11 4 6 1025.0 1024.0 0.0
23/08:30am 19.5 17.2 5.9 41 6.9 ESE 7 11 4 6 1025.0 1024.0 0.0
23/08:00am 17.9 15.4 6.4 47 5.8 SE 9 13 5 7 1024.9 1023.9 0.0
23/07:30am 16.3 15.2 7.0 54 4.7 ESE 2 7 1 4 1024.8 1023.8 0.0
23/07:00am 13.5 11.2 7.5 67 3.0 SSE 9 11 5 6 1024.4 1023.4 0.0
23/06:30am 12.0 8.8 6.7 70 2.6 SSE 13 19 7 10 1023.9 1022.9 0.0
23/06:00am 11.3 8.0 6.4 72 2.3 SSE 13 17 7 9 1023.2 1022.2 0.0
23/05:30am 12.6 8.7 7.3 70 2.6 SSE 17 19 9 10 1022.9 1021.9 0.0
23/05:00am 12.7 9.2 7.2 69 2.7 SSE 15 17 8 9 1022.7 1021.7 0.0
23/04:30am 13.3 10.7 7.7 69 2.8 SSE 11 13 6 7 1022.4 1021.4 0.0
23/04:00am 14.1 10.8 8.1 67 3.0 SSE 15 17 8 9 1022.1 1021.1 0.0
23/03:30am 15.3 11.7 8.3 63 3.6 SE 17 20 9 11 1022.2 1021.2 0.0
23/03:00am 15.7 11.4 8.0 60 3.9 SSE 20 22 11 12 1022.3 1021.3 0.0
23/02:30am 15.8 12.1 8.1 60 4.0 SSE 17 19 9 10 1022.5 1021.5 0.0
23/02:00am 16.1 12.2 7.3 56 4.4 S 17 19 9 10 1022.4 1021.4 0.0
23/01:30am 18.2 14.8 6.1 45 6.1 SE 13 15 7 8 1022.5 1021.5 0.0
23/01:00am 19.6 16.7 6.4 42 6.7 E 11 17 6 9 1023.0 1022.0 0.0
23/12:30am 20.2 16.3 6.9 42 6.9 ENE 17 20 9 11 1023.2 1022.2 0.0
23/12:00am 20.6 16.9 6.5 40 7.2 ENE 15 20 8 11 1023.7 1022.7 0.0
 
Date/Time
EDT
Temp
°C
App
Temp
°C
Dew
Point
°C
Rel
Hum
%
Delta-T
°C
Wind Press
QNH
hPa
Press
MSL
hPa
Rain since
9am
mm
Dir  Spd
km/h
Gust
km/h
Spd
kts
Gust
kts
22/11:30pm 20.9 17.3 6.8 40 7.3 ENE 15 20 8 11 1023.7 1022.7 0.0
22/11:00pm 21.4 16.9 6.1 37 7.8 ESE 19 30 10 16 1023.6 1022.5 0.0
22/10:30pm 22.7 18.0 6.0 34 8.6 E 20 26 11 14 1023.5 1022.4 0.0
22/10:00pm 22.8 17.2 5.3 32 8.9 ESE 24 30 13 16 1023.3 1022.3 0.0
22/09:30pm 23.3 18.0 4.8 30 9.4 ESE 22 28 12 15 1022.9 1021.9 0.0
22/09:00pm 23.0 17.6 1.4 24 10.2 SE 19 24 10 13 1022.5 1021.5 0.0
22/08:30pm 24.2 16.4 -0.9 19 11.5 SSE 30 37 16 20 1021.7 1020.7 0.0
22/08:00pm 24.1 18.5 -0.2 20 11.2 S 19 26 10 14 1021.4 1020.3 0.0
22/07:30pm 22.9 18.8 0.1 22 10.6 SW 11 13 6 7 1021.2 1020.1 0.0
22/07:00pm 26.0 21.9 -0.1 18 12.3 WSW 11 13 6 7 1020.8 1019.7 0.0
22/06:30pm 28.1 23.9 -0.9 15 13.7 W 11 15 6 8 1020.5 1019.5 0.0
22/06:00pm 28.9 24.8 -0.3 15 14.0 WSW 11 17 6 9 1020.3 1019.3 0.0
22/05:30pm 28.7 23.8 -0.5 15 14.0 WNW 15 20 8 11 1020.2 1019.2 0.0
22/05:00pm 28.9 25.5 -0.3 15 14.0 WSW 7 17 4 9 1020.2 1019.2 0.0
22/04:30pm 28.2 24.0 -0.9 15 13.8 SSW 11 20 6 11 1020.3 1019.3 0.0
22/04:00pm 29.0 23.8 -0.2 15 14.0 W 17 24 9 13 1020.5 1019.5 0.0
22/03:30pm 28.1 24.0 -0.1 16 13.5 W 11 22 6 12 1020.8 1019.7 0.0
22/03:00pm 28.2 23.5 0.9 17 13.3 W 15 20 8 11 1021.3 1020.2 0.0
22/02:30pm 28.0 23.4 -1.0 15 13.7 E 13 20 7 11 1021.6 1020.6 0.0
22/02:00pm 27.6 23.1 1.9 19 12.7 SW 15 24 8 13 1022.2 1021.2 0.0
22/01:30pm 27.1 23.0 0.0 17 12.9 WSW 11 19 6 10 1022.7 1021.7 0.0
22/01:00pm 26.3 21.7 3.5 23 11.5 W 17 24 9 13 1023.2 1022.2 0.0
22/12:30pm 26.3 23.7 4.1 24 11.3 ESE 7 13 4 7 1023.7 1022.7 0.0
22/12:00pm 24.9 22.4 4.6 27 10.3 W 7 17 4 9 1024.5 1023.5 0.0
22/11:30am 24.7 21.7 6.0 30 9.8 WNW 11 20 6 11 1025.0 1024.0 0.0
22/11:00am 23.1 19.8 4.6 30 9.3 N 11 17 6 9 1025.5 1024.5 0.0
22/10:30am 21.7 18.9 6.8 38 7.8 WNW 11 17 6 9 1026.0 1025.1 0.0
22/10:00am 20.8 18.4 7.1 41 7.1 NW 9 13 5 7 1026.2 1025.2 0.0
22/09:30am 20.1 18.8 7.5 44 6.6 NW 4 11 2 6 1026.3 1025.3 0.0
22/09:00am 19.3 18.3 7.4 46 6.1 ENE 2 7 1 4 1026.3 1025.3 0.0
22/08:30am 17.9 16.0 7.6 51 5.3 SE 7 9 4 5 1026.0 1025.1 0.0
22/08:00am 16.4 14.5 7.6 56 4.5 SSE 7 9 4 5 1026.0 1025.1 0.0
22/07:30am 14.7 12.0 7.5 62 3.6 SSE 11 13 6 7 1025.8 1024.9 0.0
22/07:00am 12.9 9.9 7.6 70 2.6 SSE 13 15 7 8 1025.5 1024.5 0.0
22/06:30am 11.3 8.1 6.8 74 2.2 S 13 15 7 8 1025.2 1024.2 0.0
22/06:00am 11.1 7.5 6.8 75 2.1 SSE 15 15 8 8 1025.0 1024.0 0.0
22/05:30am 11.6 8.4 6.7 72 2.4 SE 13 13 7 7 1024.7 1023.7 0.0
22/05:00am 11.8 9.9 6.7 71 2.5 SE 6 11 3 6 1024.5 1023.5 0.0
22/04:30am 12.2 8.3 6.9 70 2.6 SSE 17 17 9 9 1024.2 1023.2 0.0
22/04:00am 12.6 9.0 6.9 68 2.8 S 15 17 8 9 1024.1 1023.1 0.0
22/03:30am 12.7 9.1 6.7 67 2.9 SSE 15 17 8 9 1024.0 1023.0 0.0
22/03:00am 13.4 9.9 7.2 66 3.1 SSE 15 17 8 9 1024.2 1023.2 0.0
22/02:30am 13.7 9.7 6.8 63 3.4 SSE 17 19 9 10 1024.1 1023.1 0.0
22/02:00am 14.5 11.3 6.8 60 3.8 S 13 15 7 8 1024.2 1023.2 0.0
22/01:30am 15.3 11.9 6.1 54 4.5 SE 13 15 7 8 1024.3 1023.3 0.0
22/01:00am 16.7 14.6 6.8 52 5.0 E 7 13 4 7 1024.6 1023.6 0.0
22/12:30am 16.7 12.6 6.2 50 5.2 SE 17 20 9 11 1024.6 1023.6 0.0
22/12:00am 16.8 12.6 5.7 48 5.5 SE 17 20 9 11 1024.6 1023.6 0.0
 
Date/Time
EDT
Temp
°C
App
Temp
°C
Dew
Point
°C
Rel
Hum
%
Delta-T
°C
Wind Press
QNH
hPa
Press
MSL
hPa
Rain since
9am
mm
Dir  Spd
km/h
Gust
km/h
Spd
kts
Gust
kts
21/11:30pm 17.7 13.8 5.3 44 6.1 SE 15 19 8 10 1024.6 1023.6 0.0
21/11:00pm 19.0 14.1 5.1 40 6.9 ESE 20 24 11 13 1024.5 1023.5 0.0
21/10:30pm 19.7 14.0 5.0 38 7.3 SE 24 28 13 15 1024.5 1023.5 0.0
21/10:00pm 20.0 14.5 4.1 35 7.7 SE 22 30 12 16 1024.5 1023.5 0.0
21/09:30pm 20.0 14.9 2.8 32 8.2 SE 19 24 10 13 1024.3 1023.3 0.0
21/09:00pm 20.4 14.4 1.3 28 8.8 SSE 22 28 12 15 1024.0 1023.0 0.0
21/08:30pm 21.4 15.7 0.6 25 9.6 S 20 24 11 13 1023.7 1022.7 0.0
21/08:00pm 20.9 15.4 0.7 26 9.3 SSW 19 20 10 11 1023.3 1022.3 0.0
21/07:30pm 21.4 16.6 0.0 24 9.8 SSW 15 17 8 9 1022.9 1021.9 0.0
21/07:00pm 24.1 21.3 -0.2 20 11.2 SW 4 7 2 4 1022.5 1021.5 0.0
21/06:30pm 25.5 21.4 -0.5 18 12.1 WNW 11 20 6 11 1022.2 1021.2 0.0
21/06:00pm 26.3 22.4 -1.5 16 12.8 WSW 9 13 5 7 1022.0 1021.0 0.0
21/05:30pm 26.7 22.1 -1.2 16 13.0 W 13 17 7 9 1021.8 1020.8 0.0
21/05:00pm 26.5 21.4 -2.2 15 13.0 SW 15 24 8 13 1021.9 1020.9 0.0
21/04:30pm 26.0 21.1 -3.5 14 13.1 SE 13 22 7 12 1022.0 1021.0 0.0
21/04:00pm 27.2 22.5 -1.7 15 13.3 SSW 13 32 7 17 1022.2 1021.2 0.0
21/03:30pm 26.1 21.5 -4.4 13 13.3 SSW 11 17 6 9 1022.5 1021.5 0.0
21/03:00pm 25.8 20.9 -3.7 14 13.0 SSE 13 22 7 12 1022.8 1021.8 0.0
21/02:30pm 25.0 20.0 -4.3 14 12.7 SE 13 22 7 12 1023.5 1022.4 0.0
21/02:00pm 24.7 20.3 -2.8 16 12.2 SSW 11 20 6 11 1023.8 1022.8 0.0
21/01:30pm 24.0 18.9 -1.8 18 11.6 SW 15 26 8 14 1024.2 1023.2 0.0
21/01:00pm 23.6 19.7 1.3 23 10.6 SSW 11 17 6 9 1024.5 1023.5 0.0

Other formats

Comma delimited format used in spreadsheet applications
http://www.bom.gov.au/fwo/IDN60801/IDN60801.95762.axf

JavaScript Object Notation format (JSON) in row-major order
http://www.bom.gov.au/fwo/IDN60801/IDN60801.95762.json

Data quality

Most of these data are generated automatically and are frequently updated. Quality checks on data are not normally performed. It is possible for incorrect values to appear. Refer to information at About Latest Weather Observations and please check the disclaimer before using these data.